createdAt,value
2017-12-13T00:00:36.682Z,1007.11
2017-12-13T00:01:36.652Z,1007.06
2017-12-13T00:02:36.626Z,1007.11
2017-12-13T00:03:36.597Z,1007.08
2017-12-13T00:04:36.568Z,1007.02
2017-12-13T00:05:36.541Z,1007.01
2017-12-13T00:06:36.513Z,1007.03
2017-12-13T00:07:36.488Z,1007.08
2017-12-13T00:08:36.462Z,1007.02
2017-12-13T00:09:36.430Z,1006.98
2017-12-13T00:10:36.405Z,1007.01
2017-12-13T00:11:36.376Z,1006.97
2017-12-13T00:12:36.348Z,1006.96
2017-12-13T00:13:36.320Z,1006.98
2017-12-13T00:14:36.293Z,1006.95
2017-12-13T00:15:36.267Z,1006.99
2017-12-13T00:16:36.236Z,1006.94
2017-12-13T00:17:36.209Z,1006.96
2017-12-13T00:18:36.188Z,1006.96
2017-12-13T00:19:36.155Z,1006.97
2017-12-13T00:20:36.125Z,1006.98
2017-12-13T00:21:36.097Z,1006.92
2017-12-13T00:22:36.066Z,1006.94
2017-12-13T00:23:36.041Z,1006.96
2017-12-13T00:24:36.014Z,1006.96
2017-12-13T00:25:35.983Z,1006.98
2017-12-13T00:26:35.959Z,1006.90
2017-12-13T00:27:35.931Z,1006.87
2017-12-13T00:28:35.900Z,1006.87
2017-12-13T00:29:35.875Z,1006.84
2017-12-13T00:30:35.851Z,1006.80
2017-12-13T00:31:35.819Z,1006.82
2017-12-13T00:32:35.790Z,1006.79
2017-12-13T00:33:35.766Z,1006.79
2017-12-13T00:34:35.760Z,1006.79
2017-12-13T00:35:35.709Z,1006.82
2017-12-13T00:36:35.682Z,1006.77
2017-12-13T00:37:35.653Z,1006.72
2017-12-13T00:38:35.624Z,1006.74
2017-12-13T00:39:35.597Z,1006.81
2017-12-13T00:40:35.577Z,1006.66
2017-12-13T00:41:35.541Z,1006.76
2017-12-13T00:42:35.514Z,1006.70
2017-12-13T00:43:35.489Z,1006.70
2017-12-13T00:44:35.458Z,1006.66
2017-12-13T00:45:35.430Z,1006.66
2017-12-13T00:46:35.401Z,1006.67
2017-12-13T00:47:35.375Z,1006.67
2017-12-13T00:48:35.346Z,1006.64
2017-12-13T00:49:35.319Z,1006.66
2017-12-13T00:50:35.291Z,1006.60
2017-12-13T00:51:35.262Z,1006.59
2017-12-13T00:52:35.234Z,1006.58
2017-12-13T00:53:35.207Z,1006.56
2017-12-13T00:54:35.178Z,1006.56
2017-12-13T00:55:35.150Z,1006.55
2017-12-13T00:56:35.123Z,1006.60
2017-12-13T00:57:35.094Z,1006.53
2017-12-13T00:58:35.069Z,1006.59
2017-12-13T00:59:35.039Z,1006.62
2017-12-13T01:00:35.008Z,1006.52
2017-12-13T01:01:34.983Z,1006.50
2017-12-13T01:02:34.962Z,1006.46
2017-12-13T01:03:34.927Z,1006.50
2017-12-13T01:04:34.898Z,1006.44
2017-12-13T01:05:34.870Z,1006.44
2017-12-13T01:06:34.843Z,1006.43
2017-12-13T01:07:34.814Z,1006.42
2017-12-13T01:08:34.786Z,1006.41
2017-12-13T01:09:34.758Z,1006.42
2017-12-13T01:10:34.731Z,1006.41
2017-12-13T01:11:34.703Z,1006.35
2017-12-13T01:12:34.674Z,1006.42
2017-12-13T01:13:34.646Z,1006.37
2017-12-13T01:14:34.619Z,1006.35
2017-12-13T01:15:34.589Z,1006.38
2017-12-13T01:16:34.561Z,1006.32
2017-12-13T01:17:34.534Z,1006.33
2017-12-13T01:18:34.506Z,1006.32
2017-12-13T01:19:34.485Z,1006.32
2017-12-13T01:20:34.450Z,1006.24
2017-12-13T01:21:34.420Z,1006.27
2017-12-13T01:22:34.395Z,1006.20
2017-12-13T01:23:34.366Z,1006.21
2017-12-13T01:24:34.338Z,1006.21
2017-12-13T01:25:34.309Z,1006.24
2017-12-13T01:26:34.280Z,1006.15
2017-12-13T01:27:34.254Z,1006.18
2017-12-13T01:28:34.225Z,1006.17
2017-12-13T01:29:34.199Z,1006.18
2017-12-13T01:30:34.169Z,1006.19
2017-12-13T01:31:34.142Z,1006.24
2017-12-13T01:32:34.112Z,1006.18
2017-12-13T01:33:34.084Z,1006.18
2017-12-13T01:34:34.056Z,1006.20
2017-12-13T01:35:34.029Z,1006.22
2017-12-13T01:36:34.000Z,1006.29
2017-12-13T01:37:33.973Z,1006.23
2017-12-13T01:38:33.944Z,1006.22
2017-12-13T01:39:33.917Z,1006.21
2017-12-13T01:40:33.888Z,1006.20
2017-12-13T01:41:33.860Z,1006.22
2017-12-13T01:42:33.836Z,1006.20
2017-12-13T01:43:33.805Z,1006.19
2017-12-13T01:44:33.775Z,1006.26
2017-12-13T01:45:33.748Z,1006.21
2017-12-13T01:46:33.720Z,1006.22
2017-12-13T01:47:33.692Z,1006.27
2017-12-13T01:48:33.664Z,1006.32
2017-12-13T01:49:33.636Z,1006.21
2017-12-13T01:50:33.607Z,1006.21
2017-12-13T01:51:33.579Z,1006.26
2017-12-13T01:52:33.550Z,1006.22
2017-12-13T01:53:33.524Z,1006.18
2017-12-13T01:54:33.496Z,1006.16
2017-12-13T01:55:33.467Z,1006.13
2017-12-13T01:56:33.438Z,1006.13
2017-12-13T01:57:33.412Z,1006.10
2017-12-13T01:58:33.383Z,1006.06
2017-12-13T01:59:33.349Z,1006.09
2017-12-13T02:00:33.325Z,1005.99
2017-12-13T02:01:33.296Z,1005.98
2017-12-13T02:02:33.271Z,1005.94
2017-12-13T02:03:33.242Z,1005.99
2017-12-13T02:04:33.214Z,1005.95
2017-12-13T02:05:33.186Z,1005.92
2017-12-13T02:06:33.158Z,1005.91
2017-12-13T02:07:33.130Z,1005.89
2017-12-13T02:08:33.101Z,1005.88
2017-12-13T02:09:33.075Z,1005.83
2017-12-13T02:10:33.046Z,1005.76
2017-12-13T02:11:33.017Z,1005.79
2017-12-13T02:12:32.989Z,1005.75
2017-12-13T02:13:32.961Z,1005.74
2017-12-13T02:14:32.932Z,1005.73
2017-12-13T02:15:32.909Z,1005.73
2017-12-13T02:16:32.877Z,1005.67
2017-12-13T02:17:32.848Z,1005.66
2017-12-13T02:18:32.820Z,1005.66
2017-12-13T02:19:32.793Z,1005.63
2017-12-13T02:20:32.767Z,1005.69
2017-12-13T02:21:32.737Z,1005.67
2017-12-13T02:22:32.709Z,1005.61
2017-12-13T02:23:32.684Z,1005.62
2017-12-13T02:24:32.651Z,1005.57
2017-12-13T02:25:32.624Z,1005.57
2017-12-13T02:26:32.596Z,1005.62
2017-12-13T02:27:32.568Z,1005.52
2017-12-13T02:28:32.539Z,1005.54
2017-12-13T02:29:32.512Z,1005.49
2017-12-13T02:30:32.482Z,1005.51
2017-12-13T02:31:32.454Z,1005.49
2017-12-13T02:32:32.426Z,1005.51
2017-12-13T02:33:32.399Z,1005.46
2017-12-13T02:34:32.371Z,1005.47
2017-12-13T02:35:32.344Z,1005.42
2017-12-13T02:36:32.313Z,1005.37
2017-12-13T02:37:32.286Z,1005.38
2017-12-13T02:38:32.260Z,1005.38
2017-12-13T02:39:32.234Z,1005.43
2017-12-13T02:40:32.202Z,1005.46
2017-12-13T02:41:32.176Z,1005.40
2017-12-13T02:42:32.144Z,1005.40
2017-12-13T02:43:32.116Z,1005.44
2017-12-13T02:44:32.089Z,1005.48
2017-12-13T02:45:32.061Z,1005.41
2017-12-13T02:46:32.034Z,1005.39
2017-12-13T02:47:32.004Z,1005.39
2017-12-13T02:48:31.979Z,1005.34
2017-12-13T02:49:31.947Z,1005.28
2017-12-13T02:50:31.935Z,1005.25
2017-12-13T02:51:31.898Z,1005.28
2017-12-13T02:52:31.864Z,1005.24
2017-12-13T02:53:31.831Z,1005.18
2017-12-13T02:54:31.807Z,1005.21
2017-12-13T02:55:31.779Z,1005.20
2017-12-13T02:56:31.749Z,1005.18
2017-12-13T02:57:31.721Z,1005.19
2017-12-13T02:58:31.743Z,1005.20
2017-12-13T02:59:31.666Z,1005.11
2017-12-13T03:00:31.635Z,1005.15
2017-12-13T03:01:31.608Z,1005.14
2017-12-13T03:02:31.580Z,1005.08
2017-12-13T03:03:31.553Z,1005.12
2017-12-13T03:04:31.523Z,1005.06
2017-12-13T03:05:31.494Z,1005.10
2017-12-13T03:06:31.466Z,1005.07
2017-12-13T03:07:31.440Z,1005.03
2017-12-13T03:08:31.410Z,1005.01
2017-12-13T03:09:31.382Z,1005.03
2017-12-13T03:10:31.355Z,1005.01
2017-12-13T03:11:31.327Z,1005.01
2017-12-13T03:12:31.298Z,1004.98
2017-12-13T03:13:31.273Z,1004.94
2017-12-13T03:14:31.242Z,1004.96
2017-12-13T03:15:31.213Z,1004.96
2017-12-13T03:16:31.185Z,1004.94
2017-12-13T03:17:31.157Z,1004.93
2017-12-13T03:18:31.129Z,1004.88
2017-12-13T03:19:31.098Z,1004.93
2017-12-13T03:20:31.073Z,1004.87
2017-12-13T03:21:31.044Z,1004.87
2017-12-13T03:22:31.014Z,1004.91
2017-12-13T03:23:30.989Z,1004.92
2017-12-13T03:24:30.959Z,1004.85
2017-12-13T03:25:30.930Z,1004.90
2017-12-13T03:26:30.902Z,1004.80
2017-12-13T03:27:30.875Z,1004.79
2017-12-13T03:28:30.846Z,1004.80
2017-12-13T03:29:30.818Z,1004.80
2017-12-13T03:30:30.794Z,1004.76
2017-12-13T03:31:30.762Z,1004.68
2017-12-13T03:32:30.732Z,1004.70
2017-12-13T03:33:30.706Z,1004.72
2017-12-13T03:34:30.678Z,1004.65
2017-12-13T03:35:30.649Z,1004.69
2017-12-13T03:36:30.620Z,1004.67
2017-12-13T03:37:30.592Z,1004.67
2017-12-13T03:38:30.565Z,1004.66
2017-12-13T03:39:30.536Z,1004.62
2017-12-13T03:40:30.510Z,1004.64
2017-12-13T03:41:30.483Z,1004.67
2017-12-13T03:42:30.453Z,1004.65
2017-12-13T03:43:30.424Z,1004.63
2017-12-13T03:44:30.396Z,1004.62
2017-12-13T03:45:30.364Z,1004.52
2017-12-13T03:46:30.340Z,1004.52
2017-12-13T03:47:30.310Z,1004.51
2017-12-13T03:48:30.281Z,1004.46
2017-12-13T03:49:30.256Z,1004.43
2017-12-13T03:50:30.226Z,1004.36
2017-12-13T03:51:30.198Z,1004.37
2017-12-13T03:52:30.170Z,1004.36
2017-12-13T03:53:30.142Z,1004.36
2017-12-13T03:54:30.114Z,1004.31
2017-12-13T03:55:30.086Z,1004.29
2017-12-13T03:56:30.057Z,1004.31
2017-12-13T03:57:30.029Z,1004.33
2017-12-13T03:58:30.004Z,1004.31
2017-12-13T03:59:29.974Z,1004.23
2017-12-13T04:00:29.945Z,1004.18
2017-12-13T04:01:29.917Z,1004.30
2017-12-13T04:02:29.888Z,1004.19
2017-12-13T04:03:29.861Z,1004.23
2017-12-13T04:04:29.833Z,1004.25
2017-12-13T04:05:29.803Z,1004.25
2017-12-13T04:06:29.776Z,1004.27
2017-12-13T04:07:29.750Z,1004.23
2017-12-13T04:08:29.720Z,1004.18
2017-12-13T04:09:29.692Z,1004.18
2017-12-13T04:10:29.663Z,1004.18
2017-12-13T04:11:29.635Z,1004.15
2017-12-13T04:12:29.608Z,1004.10
2017-12-13T04:13:29.580Z,1004.17
2017-12-13T04:14:29.553Z,1004.21
2017-12-13T04:15:29.523Z,1004.18
2017-12-13T04:16:29.496Z,1004.05
2017-12-13T04:17:29.465Z,1004.10
2017-12-13T04:18:29.441Z,1004.10
2017-12-13T04:19:29.410Z,1004.15
2017-12-13T04:20:29.383Z,1004.14
2017-12-13T04:21:29.354Z,1004.11
2017-12-13T04:22:29.326Z,1004.09
2017-12-13T04:23:29.298Z,1004.09
2017-12-13T04:24:29.268Z,1004.00
2017-12-13T04:25:29.241Z,1004.02
2017-12-13T04:26:29.213Z,1004.03
2017-12-13T04:27:29.184Z,1003.95
2017-12-13T04:28:29.156Z,1003.95
2017-12-13T04:29:29.128Z,1003.96
2017-12-13T04:30:29.102Z,1003.89
2017-12-13T04:31:29.073Z,1003.91
2017-12-13T04:32:29.044Z,1003.87
2017-12-13T04:33:29.018Z,1003.86
2017-12-13T04:34:28.989Z,1003.80
2017-12-13T04:35:28.961Z,1003.81
2017-12-13T04:36:28.936Z,1003.82
2017-12-13T04:37:28.903Z,1003.79
2017-12-13T04:38:28.878Z,1003.74
2017-12-13T04:39:28.849Z,1003.73
2017-12-13T04:40:28.820Z,1003.68
2017-12-13T04:41:28.791Z,1003.71
2017-12-13T04:42:28.765Z,1003.61
2017-12-13T04:43:28.734Z,1003.67
2017-12-13T04:44:28.708Z,1003.60
2017-12-13T04:45:28.689Z,1003.63
2017-12-13T04:46:28.651Z,1003.61
2017-12-13T04:47:28.625Z,1003.55
2017-12-13T04:48:28.594Z,1003.50
2017-12-13T04:49:28.572Z,1003.50
2017-12-13T04:50:28.540Z,1003.52
2017-12-13T04:51:28.513Z,1003.47
2017-12-13T04:52:28.483Z,1003.43
2017-12-13T04:53:28.459Z,1003.41
2017-12-13T04:54:28.429Z,1003.42
2017-12-13T04:55:28.401Z,1003.40
2017-12-13T04:56:28.371Z,1003.40
2017-12-13T04:57:28.345Z,1003.32
2017-12-13T04:58:28.316Z,1003.28
2017-12-13T04:59:28.290Z,1003.24
2017-12-13T05:00:28.260Z,1003.22
2017-12-13T05:01:28.245Z,1003.24
2017-12-13T05:02:28.206Z,1003.16
2017-12-13T05:03:28.177Z,1003.15
2017-12-13T05:04:28.144Z,1003.16
2017-12-13T05:05:28.128Z,1003.23
2017-12-13T05:06:28.094Z,1003.13
2017-12-13T05:07:28.065Z,1003.24
2017-12-13T05:08:28.041Z,1003.13
2017-12-13T05:09:28.010Z,1003.19
2017-12-13T05:10:27.981Z,1003.15
2017-12-13T05:11:27.954Z,1003.13
2017-12-13T05:12:27.930Z,1003.17
2017-12-13T05:13:27.898Z,1003.18
2017-12-13T05:14:27.869Z,1003.15
2017-12-13T05:15:27.843Z,1003.14
2017-12-13T05:16:27.812Z,1003.08
2017-12-13T05:17:27.786Z,1003.12
2017-12-13T05:18:27.755Z,1003.16
2017-12-13T05:19:27.727Z,1003.08
2017-12-13T05:20:27.694Z,1003.03
2017-12-13T05:21:27.701Z,1003.05
2017-12-13T05:22:27.646Z,1003.10
2017-12-13T05:23:27.619Z,1003.03
2017-12-13T05:24:27.664Z,1003.02
2017-12-13T05:25:27.559Z,1002.91
2017-12-13T05:26:27.535Z,1002.93
2017-12-13T05:27:27.505Z,1002.89
2017-12-13T05:28:27.475Z,1002.86
2017-12-13T05:29:27.450Z,1002.79
2017-12-13T05:30:27.420Z,1002.81
2017-12-13T05:31:27.392Z,1002.77
2017-12-13T05:32:27.364Z,1002.73
2017-12-13T05:33:27.337Z,1002.69
2017-12-13T05:34:27.306Z,1002.71
2017-12-13T05:35:27.280Z,1002.72
2017-12-13T05:36:27.252Z,1002.69
2017-12-13T05:37:27.227Z,1002.61
2017-12-13T05:38:27.293Z,1002.61
2017-12-13T05:39:27.250Z,1002.59
2017-12-13T05:40:27.243Z,1002.54
2017-12-13T05:41:27.222Z,1002.56
2017-12-13T05:42:27.154Z,1002.61
2017-12-13T05:43:27.147Z,1002.57
2017-12-13T05:44:27.117Z,1002.58
2017-12-13T05:45:27.103Z,1002.53
2017-12-13T05:46:27.046Z,1002.62
2017-12-13T05:47:27.061Z,1002.56
2017-12-13T05:48:27.016Z,1002.57
2017-12-13T05:49:26.988Z,1002.60
2017-12-13T05:50:26.969Z,1002.62
2017-12-13T05:51:26.915Z,1002.51
2017-12-13T05:52:26.909Z,1002.49
2017-12-13T05:53:26.883Z,1002.47
2017-12-13T05:54:26.851Z,1002.46
2017-12-13T05:55:26.816Z,1002.45
2017-12-13T05:56:26.857Z,1002.47
2017-12-13T05:57:26.770Z,1002.50
2017-12-13T05:58:26.706Z,1002.43
2017-12-13T05:59:26.700Z,1002.38
2017-12-13T06:00:26.671Z,1002.40
2017-12-13T06:01:26.639Z,1002.44
2017-12-13T06:02:26.624Z,1002.40
2017-12-13T06:03:26.558Z,1002.36
2017-12-13T06:04:26.568Z,1002.33
2017-12-13T06:05:26.514Z,1002.22
2017-12-13T06:06:26.503Z,1002.18
2017-12-13T06:07:26.379Z,1002.16
2017-12-13T06:08:26.349Z,1002.18
2017-12-13T06:09:26.322Z,1002.20
2017-12-13T06:10:26.290Z,1002.21
2017-12-13T06:11:26.266Z,1002.16
2017-12-13T06:12:26.236Z,1002.08
2017-12-13T06:13:26.204Z,1002.09
2017-12-13T06:14:26.182Z,1002.14
2017-12-13T06:15:26.155Z,1002.11
2017-12-13T06:16:26.121Z,1002.09
2017-12-13T06:17:26.097Z,1002.04
2017-12-13T06:18:26.070Z,1002.05
2017-12-13T06:19:26.039Z,1002.08
2017-12-13T06:20:26.013Z,1001.98
2017-12-13T06:21:25.985Z,1002.02
2017-12-13T06:22:25.961Z,1002.00
2017-12-13T06:23:25.929Z,1001.93
2017-12-13T06:24:25.900Z,1001.89
2017-12-13T06:25:25.871Z,1001.89
2017-12-13T06:26:25.845Z,1001.82
2017-12-13T06:27:25.817Z,1001.77
2017-12-13T06:28:25.786Z,1001.76
2017-12-13T06:29:25.760Z,1001.79
2017-12-13T06:30:25.733Z,1001.74
2017-12-13T06:31:25.708Z,1001.71
2017-12-13T06:32:25.682Z,1001.65
2017-12-13T06:33:25.650Z,1001.72
2017-12-13T06:34:25.619Z,1001.74
2017-12-13T06:35:25.592Z,1001.68
2017-12-13T06:36:25.564Z,1001.66
2017-12-13T06:37:25.533Z,1001.68
2017-12-13T06:38:25.507Z,1001.62
2017-12-13T06:39:25.476Z,1001.53
2017-12-13T06:40:25.452Z,1001.57
2017-12-13T06:41:25.423Z,1001.59
2017-12-13T06:42:25.395Z,1001.55
2017-12-13T06:43:25.365Z,1001.59
2017-12-13T06:44:25.344Z,1001.52
2017-12-13T06:45:25.309Z,1001.55
2017-12-13T06:46:25.284Z,1001.46
2017-12-13T06:47:25.255Z,1001.55
2017-12-13T06:48:25.248Z,1001.50
2017-12-13T06:49:25.280Z,1001.45
2017-12-13T06:50:25.175Z,1001.51
2017-12-13T06:51:25.146Z,1001.48
2017-12-13T06:52:25.117Z,1001.41
2017-12-13T06:53:25.089Z,1001.30
2017-12-13T06:54:25.061Z,1001.39
2017-12-13T06:55:25.032Z,1001.37
2017-12-13T06:56:25.006Z,1001.33
2017-12-13T06:57:25.038Z,1001.32
2017-12-13T06:58:24.944Z,1001.28
2017-12-13T06:59:24.920Z,1001.25
2017-12-13T07:00:24.891Z,1001.23
2017-12-13T07:01:24.861Z,1001.17
2017-12-13T07:02:24.837Z,1001.15
2017-12-13T07:03:24.857Z,1001.25
2017-12-13T07:04:24.780Z,1001.15
2017-12-13T07:05:24.752Z,1001.12
2017-12-13T07:06:24.824Z,1001.07
2017-12-13T07:07:24.697Z,1001.05
2017-12-13T07:08:24.672Z,1001.06
2017-12-13T07:09:24.643Z,1001.04
2017-12-13T07:10:24.614Z,1000.96
2017-12-13T07:11:24.587Z,1001.00
2017-12-13T07:12:24.558Z,1000.95
2017-12-13T07:13:24.532Z,1000.95
2017-12-13T07:14:24.503Z,1000.99
2017-12-13T07:15:24.479Z,1000.95
2017-12-13T07:16:24.458Z,1000.88
2017-12-13T07:17:24.420Z,1000.90
2017-12-13T07:18:24.397Z,1000.88
2017-12-13T07:19:24.364Z,1000.80
2017-12-13T07:20:24.338Z,1000.77
2017-12-13T07:21:24.310Z,1000.82
2017-12-13T07:22:24.283Z,1000.79
2017-12-13T07:23:24.253Z,1000.75
2017-12-13T07:24:24.227Z,1000.80
2017-12-13T07:25:24.205Z,1000.77
2017-12-13T07:26:24.172Z,1000.80
2017-12-13T07:27:24.145Z,1000.77
2017-12-13T07:28:24.116Z,1000.72
2017-12-13T07:29:24.087Z,1000.69
2017-12-13T07:30:24.065Z,1000.81
2017-12-13T07:31:24.035Z,1000.68
2017-12-13T07:32:24.060Z,1000.64
2017-12-13T07:33:23.982Z,1000.66
2017-12-13T07:34:23.952Z,1000.61
2017-12-13T07:35:23.925Z,1000.64
2017-12-13T07:36:23.897Z,1000.54
2017-12-13T07:37:23.870Z,1000.52
2017-12-13T07:38:23.842Z,1000.56
2017-12-13T07:39:23.815Z,1000.54
2017-12-13T07:40:23.788Z,1000.44
2017-12-13T07:41:23.759Z,1000.50
2017-12-13T07:42:23.735Z,1000.37
2017-12-13T07:43:23.706Z,1000.41
2017-12-13T07:44:23.678Z,1000.56
2017-12-13T07:45:23.651Z,1000.50
2017-12-13T07:46:23.623Z,1000.38
2017-12-13T07:47:23.596Z,1000.37
2017-12-13T07:48:23.568Z,1000.36
2017-12-13T07:49:23.551Z,1000.33
2017-12-13T07:50:23.512Z,1000.30
2017-12-13T07:51:23.494Z,1000.34
2017-12-13T07:52:23.459Z,1000.26
2017-12-13T07:53:23.434Z,1000.25
2017-12-13T07:54:23.406Z,1000.23
2017-12-13T07:55:23.379Z,1000.27
2017-12-13T07:56:23.350Z,1000.21
2017-12-13T07:57:23.324Z,1000.21
2017-12-13T07:58:23.297Z,1000.13
2017-12-13T07:59:23.270Z,1000.20
2017-12-13T08:00:23.240Z,1000.13
2017-12-13T08:01:23.218Z,1000.12
2017-12-13T08:02:23.188Z,1000.12
2017-12-13T08:03:23.163Z,1000.12
2017-12-13T08:04:23.133Z,1000.11
2017-12-13T08:05:23.116Z,1000.10
2017-12-13T08:06:23.078Z,1000.11
2017-12-13T08:07:23.052Z,1000.07
2017-12-13T08:08:23.028Z,1000.09
2017-12-13T08:09:22.998Z,1000.01
2017-12-13T08:10:22.972Z,1000.03
2017-12-13T08:11:22.944Z,999.99
2017-12-13T08:12:22.918Z,999.95
2017-12-13T08:13:22.890Z,999.99
2017-12-13T08:14:22.863Z,999.90
2017-12-13T08:15:22.836Z,999.93
2017-12-13T08:16:22.810Z,999.87
2017-12-13T08:17:22.782Z,999.82
2017-12-13T08:18:22.757Z,999.87
2017-12-13T08:19:22.731Z,999.80
2017-12-13T08:20:22.701Z,999.78
2017-12-13T08:21:22.674Z,999.72
2017-12-13T08:22:22.647Z,999.73
2017-12-13T08:23:22.620Z,999.79
2017-12-13T08:24:22.595Z,999.73
2017-12-13T08:25:22.568Z,999.70
2017-12-13T08:26:22.540Z,999.73
2017-12-13T08:27:22.511Z,999.65
2017-12-13T08:28:22.487Z,999.63
2017-12-13T08:29:22.460Z,999.60
2017-12-13T08:30:22.434Z,999.70
2017-12-13T08:31:22.408Z,999.64
2017-12-13T08:32:22.379Z,999.66
2017-12-13T08:33:22.354Z,999.61
2017-12-13T08:34:22.327Z,999.48
2017-12-13T08:35:22.301Z,999.50
2017-12-13T08:36:22.274Z,999.44
2017-12-13T08:37:22.246Z,999.42
2017-12-13T08:38:22.220Z,999.39
2017-12-13T08:39:22.193Z,999.40
2017-12-13T08:40:22.168Z,999.36
2017-12-13T08:41:22.141Z,999.28
2017-12-13T08:42:22.112Z,999.23
2017-12-13T08:43:22.087Z,999.19
2017-12-13T08:44:22.059Z,999.19
2017-12-13T08:45:22.033Z,999.21
2017-12-13T08:46:22.005Z,999.20
2017-12-13T08:47:21.983Z,999.13
2017-12-13T08:48:21.953Z,999.10
2017-12-13T08:49:21.926Z,999.05
2017-12-13T08:50:21.899Z,998.99
2017-12-13T08:51:21.872Z,999.00
2017-12-13T08:52:21.844Z,999.01
2017-12-13T08:53:21.818Z,999.00
2017-12-13T08:54:21.792Z,998.96
2017-12-13T08:55:21.767Z,998.95
2017-12-13T08:56:21.737Z,998.93
2017-12-13T08:57:21.711Z,998.92
2017-12-13T08:58:21.684Z,998.93
2017-12-13T08:59:21.657Z,998.88
2017-12-13T09:00:21.630Z,998.87
2017-12-13T09:01:21.604Z,998.92
2017-12-13T09:02:21.577Z,998.84
2017-12-13T09:03:21.551Z,998.86
2017-12-13T09:04:21.523Z,998.79
2017-12-13T09:05:21.495Z,998.82
2017-12-13T09:06:21.471Z,998.77
2017-12-13T09:07:21.443Z,998.75
2017-12-13T09:08:21.416Z,998.70
2017-12-13T09:09:21.391Z,998.72
2017-12-13T09:10:21.367Z,998.67
2017-12-13T09:11:21.335Z,998.62
2017-12-13T09:12:21.309Z,998.62
2017-12-13T09:13:21.284Z,998.65
2017-12-13T09:14:21.254Z,998.63
2017-12-13T09:15:21.231Z,998.62
2017-12-13T09:16:21.203Z,998.48
2017-12-13T09:17:21.177Z,998.48
2017-12-13T09:18:21.152Z,998.54
2017-12-13T09:19:21.126Z,998.52
2017-12-13T09:20:21.096Z,998.55
2017-12-13T09:21:21.071Z,998.48
2017-12-13T09:22:21.044Z,998.40
2017-12-13T09:23:21.020Z,998.37
2017-12-13T09:24:20.991Z,998.40
2017-12-13T09:25:20.963Z,998.30
2017-12-13T09:26:20.937Z,998.29
2017-12-13T09:27:20.912Z,998.33
2017-12-13T09:28:20.884Z,998.31
2017-12-13T09:29:20.856Z,998.22
2017-12-13T09:30:20.829Z,998.21
2017-12-13T09:31:20.802Z,998.10
2017-12-13T09:32:20.778Z,998.16
2017-12-13T09:33:20.749Z,998.10
2017-12-13T09:34:20.722Z,998.13
2017-12-13T09:35:20.696Z,998.19
2017-12-13T09:36:20.666Z,998.06
2017-12-13T09:37:20.645Z,998.00
2017-12-13T09:38:20.617Z,998.02
2017-12-13T09:39:20.589Z,998.21
2017-12-13T09:40:20.560Z,998.01
2017-12-13T09:41:20.534Z,998.00
2017-12-13T09:42:20.508Z,997.95
2017-12-13T09:43:20.482Z,998.10
2017-12-13T09:44:20.452Z,998.00
2017-12-13T09:45:20.425Z,997.87
2017-12-13T09:46:20.399Z,997.84
2017-12-13T09:47:20.371Z,997.86
2017-12-13T09:48:20.349Z,997.79
2017-12-13T09:49:20.318Z,997.87
2017-12-13T09:50:20.289Z,997.76
2017-12-13T09:51:20.266Z,997.75
2017-12-13T09:52:20.236Z,997.63
2017-12-13T09:53:20.209Z,997.63
2017-12-13T09:54:20.183Z,997.57
2017-12-13T09:55:20.155Z,997.56
2017-12-13T09:56:20.131Z,997.50
2017-12-13T09:57:20.102Z,997.51
2017-12-13T09:58:20.076Z,997.43
2017-12-13T09:59:20.048Z,997.43
2017-12-13T10:00:20.020Z,997.35
2017-12-13T10:01:19.996Z,997.35
2017-12-13T10:02:19.968Z,997.29
2017-12-13T10:03:19.939Z,997.26
2017-12-13T10:04:19.911Z,997.29
2017-12-13T10:05:19.887Z,997.21
2017-12-13T10:06:19.859Z,997.20
2017-12-13T10:07:19.834Z,997.21
2017-12-13T10:08:19.806Z,997.22
2017-12-13T10:09:19.785Z,997.12
2017-12-13T10:10:19.758Z,997.13
2017-12-13T10:11:19.723Z,997.06
2017-12-13T10:12:19.697Z,997.05
2017-12-13T10:13:19.671Z,996.97
2017-12-13T10:14:19.643Z,996.90
2017-12-13T10:15:19.616Z,996.95
2017-12-13T10:16:19.591Z,996.96
2017-12-13T10:17:19.564Z,996.84
2017-12-13T10:18:19.536Z,996.84
2017-12-13T10:19:19.512Z,996.79
2017-12-13T10:20:19.484Z,996.82
2017-12-13T10:21:19.461Z,996.80
2017-12-13T10:22:19.429Z,996.79
2017-12-13T10:23:19.401Z,996.74
2017-12-13T10:24:19.375Z,996.65
2017-12-13T10:25:19.348Z,996.77
2017-12-13T10:26:19.321Z,996.58
2017-12-13T10:27:19.295Z,996.60
2017-12-13T10:28:19.269Z,996.57
2017-12-13T10:29:19.241Z,996.53
2017-12-13T10:30:19.215Z,996.50
2017-12-13T10:31:19.187Z,996.39
2017-12-13T10:32:19.164Z,996.40
2017-12-13T10:33:19.134Z,996.38
2017-12-13T10:34:19.106Z,996.39
2017-12-13T10:35:19.080Z,996.32
2017-12-13T10:36:19.052Z,996.35
2017-12-13T10:37:19.026Z,996.23
2017-12-13T10:38:18.997Z,996.34
2017-12-13T10:39:18.969Z,996.28
2017-12-13T10:40:18.944Z,996.21
2017-12-13T10:41:18.916Z,996.17
2017-12-13T10:42:18.890Z,996.20
2017-12-13T10:43:18.863Z,996.10
2017-12-13T10:44:18.836Z,996.13
2017-12-13T10:45:18.809Z,996.03
2017-12-13T10:46:18.782Z,996.04
2017-12-13T10:47:18.765Z,996.03
2017-12-13T10:48:18.728Z,996.03
2017-12-13T10:49:18.701Z,996.11
2017-12-13T10:50:18.674Z,995.98
2017-12-13T10:51:18.647Z,996.06
2017-12-13T10:52:18.619Z,995.97
2017-12-13T10:53:18.593Z,995.87
2017-12-13T10:54:18.566Z,995.85
2017-12-13T10:55:18.538Z,995.79
2017-12-13T10:56:18.510Z,995.71
2017-12-13T10:57:18.485Z,995.70
2017-12-13T10:58:18.458Z,995.62
2017-12-13T10:59:18.434Z,995.68
2017-12-13T11:00:18.403Z,995.57
2017-12-13T11:01:18.376Z,995.53
2017-12-13T11:02:18.351Z,995.52
2017-12-13T11:03:18.319Z,995.44
2017-12-13T11:04:18.298Z,995.38
2017-12-13T11:05:18.268Z,995.41
2017-12-13T11:06:18.242Z,995.37
2017-12-13T11:07:18.275Z,995.44
2017-12-13T11:08:18.187Z,995.34
2017-12-13T11:09:18.160Z,995.28
2017-12-13T11:10:18.134Z,995.17
2017-12-13T11:11:18.105Z,995.24
2017-12-13T11:12:18.079Z,995.17
2017-12-13T11:13:18.099Z,995.20
2017-12-13T11:14:18.024Z,995.14
2017-12-13T11:15:17.999Z,995.13
2017-12-13T11:16:17.970Z,995.16
2017-12-13T11:17:17.945Z,995.08
2017-12-13T11:18:17.915Z,995.16
2017-12-13T11:19:17.889Z,995.04
2017-12-13T11:20:17.861Z,994.95
2017-12-13T11:21:17.835Z,995.02
2017-12-13T11:22:17.810Z,994.88
2017-12-13T11:23:17.780Z,994.89
2017-12-13T11:24:17.753Z,994.92
2017-12-13T11:25:17.726Z,994.78
2017-12-13T11:26:17.699Z,994.82
2017-12-13T11:27:17.672Z,994.73
2017-12-13T11:28:17.644Z,994.73
2017-12-13T11:29:17.618Z,994.71
2017-12-13T11:30:17.589Z,994.64
2017-12-13T11:31:17.563Z,994.67
2017-12-13T11:32:17.535Z,994.66
2017-12-13T11:33:17.510Z,994.61
2017-12-13T11:34:17.481Z,994.55
2017-12-13T11:35:17.454Z,994.60
2017-12-13T11:36:17.428Z,994.52
2017-12-13T11:37:17.400Z,994.42
2017-12-13T11:38:17.374Z,994.43
2017-12-13T11:39:17.347Z,994.37
2017-12-13T11:40:17.316Z,994.37
2017-12-13T11:41:17.291Z,994.28
2017-12-13T11:42:17.266Z,994.32
2017-12-13T11:43:17.233Z,994.27
2017-12-13T11:44:17.208Z,994.25
2017-12-13T11:45:17.187Z,994.19
2017-12-13T11:46:17.155Z,994.13
2017-12-13T11:47:17.128Z,994.17
2017-12-13T11:48:17.105Z,994.13
2017-12-13T11:49:17.074Z,994.13
2017-12-13T11:50:17.046Z,994.08
2017-12-13T11:51:17.020Z,994.08
2017-12-13T11:52:16.991Z,994.22
2017-12-13T11:53:16.964Z,994.07
2017-12-13T11:54:16.939Z,994.02
2017-12-13T11:55:16.912Z,993.91
2017-12-13T11:56:16.885Z,993.80
2017-12-13T11:57:16.856Z,993.88
2017-12-13T11:58:16.829Z,993.98
2017-12-13T11:59:16.802Z,993.81
2017-12-13T12:00:16.774Z,993.81
2017-12-13T12:01:16.795Z,993.71
2017-12-13T12:02:16.722Z,993.71
2017-12-13T12:03:16.693Z,993.69
2017-12-13T12:04:16.666Z,993.65
2017-12-13T12:05:16.638Z,993.74
2017-12-13T12:06:16.613Z,993.75
2017-12-13T12:07:16.586Z,993.66
2017-12-13T12:08:16.556Z,993.66
2017-12-13T12:09:16.531Z,993.55
2017-12-13T12:10:16.501Z,993.46
2017-12-13T12:11:16.484Z,993.47
2017-12-13T12:12:16.449Z,993.57
2017-12-13T12:13:16.419Z,993.49